Aeroporto :
LOGIN :

Iscrizione | Disclaimer

   EN    FR    IT 

 










Sommario :    VFR   VFR Marginale   IFR   IFR Intensivo   IFR Molto Intensivo
Visibilità : 
Base nubi : 
>= 8 km
>= 3000ft
5 / 8 km
1000 / 3000 ft
1500m / 5 km
500 / 1000 ft
800 / 1500m
200 / 500 ft
< 800m
< 200 ft
Simboli :   Temporali  Nebbia  Neve Forte  Precipitazioni Forti  Vento > 20 kt
SIGMETs :   Varie  Temporali  Ghiacco  Turbolenza  Onda orograficha  Ceneri Vulcaniche






- Altitudine del aeroporto : 183 ft
- Codice IATA : HAJ


EDDV - Hanover/Langenhagen Int.

ULTIMO METAR :
  • 200050Z AUTO 32012KT 9999 BKN015 OVC032 05/03 Q1010

METARs OBSOLETI :
  • 200020Z AUTO 32012KT 9999 BKN015 BKN021 05/03 Q1010
  • 192350Z AUTO 32013KT 9999 BKN016 OVC025 05/03 Q1009
  • 192320Z AUTO 32012KT 290V010 9999 BKN017 BKN029 06/03 Q1009
  • 192250Z AUTO 33014KT 300V360 9999 BKN017 OVC027 06/03 Q1008
  • 192220Z AUTO 32014KT 9999 SCT017 BKN027 OVC037 06/03 Q1008
  • 192150Z AUTO 31013KT 9999 -RA BKN017 BKN023 OVC029 06/04 Q1007
  • 192120Z AUTO 32014KT 290V350 9999 BKN019 BKN024 06/04 Q1006
  • 192050Z AUTO 32015KT 290V350 9999 BKN017 BKN023 06/04 Q1005 TEMPO 32015G25KT
  • 192020Z AUTO 31013KT 9999 BKN017 BKN023 OVC029 07/04 Q1005 TEMPO 32015G25KT

TAF TAF EDDV
Valido dal 20 a 00 ore il 21 a 00 ore UTC


192300Z 2000/2024 31013KT 9999 BKN025
BECMG 2003/2005 33008KT
PROB40
TEMPO 2012/2024 SHRA SCT013 BKN020CB
PROB30
TEMPO 2021/2024 BKN013



MetMap, La meteo Aeronautica in un colpo d'occhio ! - Copyright ORBIFLY Dicembre 2007 - Disclaimer

ORBIFLY MET'MAP TEAM :

Programmazione e sviluppo : Alexandra Zaïnal
Concezione : Baudouin d'Aumeries
Supporto tecnico e logistico : Manuel Goepfert
Aiuto : Marc-Olivier Méhu
Aiuto per la traduzione : Arnaldo La Scala




FONTI E CREDITI :

   NOAA